Time;durP1;ratioP1;P1;durP2;ratioP2;P2;SDS_P1;SDS_P2;PMS_P1;PMS_P2;Temp;Humidity;BMP_temperature;BMP_pressure;BME280_temperature;BME280_humidity;BME280_pressure;Samples;Min_cycle;Max_cycle;Signal;HPM_P1;HPM_P2
2022/09/17 04:05:17;;;;;;;1.10;1.10;;;9.90;99.90;;;;;;6237831;22;20216;-61
2022/09/17 04:07:42;;;;;;;1.30;1.20;;;9.90;99.90;;;;;;6246890;23;20468;-64
2022/09/17 04:10:08;;;;;;;0.77;0.77;;;9.80;99.90;;;;;;6246942;23;20227;-61
2022/09/17 04:12:34;;;;;;;1.30;1.20;;;9.80;99.90;;;;;;6246465;23;20738;-64
2022/09/17 04:15:00;;;;;;;1.43;1.23;;;9.80;99.90;;;;;;6222734;23;20624;-62
2022/09/17 04:17:26;;;;;;;2.60;1.03;;;9.70;99.90;;;;;;6216579;23;20205;-63
2022/09/17 04:19:52;;;;;;;1.17;1.08;;;9.60;99.90;;;;;;6216677;23;20156;-62
2022/09/17 04:22:18;;;;;;;1.20;1.10;;;9.70;99.90;;;;;;6216033;23;20149;-63
2022/09/17 04:24:43;;;;;;;1.13;1.03;;;9.70;99.90;;;;;;6216054;23;20169;-63
2022/09/17 04:27:09;;;;;;;1.70;1.60;;;9.70;99.90;;;;;;6215930;23;20168;-63
2022/09/17 04:29:34;;;;;;;1.40;1.30;;;9.70;99.90;;;;;;6216437;23;20149;-63
2022/09/17 04:32:00;;;;;;;1.67;1.23;;;9.80;99.90;;;;;;6216561;23;20655;-63
2022/09/17 04:34:26;;;;;;;1.50;1.40;;;9.90;99.90;;;;;;6214670;23;20493;-62
2022/09/17 04:36:51;;;;;;;1.00;1.00;;;9.90;99.90;;;;;;6189525;23;20196;-62
2022/09/17 04:39:17;;;;;;;0.87;0.87;;;10.00;99.90;;;;;;6215621;23;20141;-62
2022/09/17 04:41:43;;;;;;;1.60;1.50;;;10.10;99.90;;;;;;6215949;23;20149;-61
2022/09/17 04:44:08;;;;;;;1.33;1.33;;;10.20;99.90;;;;;;6215867;23;20244;-62
2022/09/17 04:46:34;;;;;;;1.40;1.30;;;10.20;99.90;;;;;;6215694;23;20150;-65
2022/09/17 04:49:00;;;;;;;0.93;0.80;;;10.30;99.90;;;;;;6216062;23;20608;-63
2022/09/17 04:51:25;;;;;;;2.00;1.63;;;10.30;99.90;;;;;;6216074;23;20158;-63
2022/09/17 04:53:51;;;;;;;0.93;0.90;;;10.30;99.90;;;;;;6215501;23;20169;-63
2022/09/17 04:56:16;;;;;;;1.17;1.17;;;10.40;99.90;;;;;;6216097;23;20204;-64
2022/09/17 04:58:42;;;;;;;1.27;1.23;;;10.40;99.90;;;;;;6215614;23;20640;-63
2022/09/17 05:01:08;;;;;;;1.03;0.80;;;10.40;99.90;;;;;;6216052;23;20181;-64
2022/09/17 05:03:33;;;;;;;3.40;1.63;;;10.40;99.90;;;;;;6215814;23;20247;-63
2022/09/17 05:05:59;;;;;;;3.60;1.50;;;10.40;99.90;;;;;;6215772;23;20168;-64
2022/09/17 05:08:25;;;;;;;3.93;1.63;;;10.40;99.90;;;;;;6215799;23;20153;-63
2022/09/17 05:10:50;;;;;;;3.37;1.50;;;10.40;99.90;;;;;;6215944;23;20191;-64
2022/09/17 05:13:16;;;;;;;2.87;2.10;;;10.40;99.90;;;;;;6215816;23;20177;-64
2022/09/17 05:15:42;;;;;;;0.90;0.90;;;10.50;99.90;;;;;;6215579;23;20192;-65
2022/09/17 05:18:08;;;;;;;1.57;1.57;;;10.50;99.90;;;;;;6215753;23;20514;-64
2022/09/17 05:20:33;;;;;;;1.30;1.30;;;10.50;99.90;;;;;;6215880;23;20604;-64
2022/09/17 05:22:59;;;;;;;1.63;1.53;;;10.50;99.90;;;;;;6215304;23;20142;-64
2022/09/17 05:25:24;;;;;;;1.10;1.00;;;10.50;99.90;;;;;;6215773;23;20219;-63
2022/09/17 05:27:52;;;;;;;3.07;1.20;;;10.50;99.90;;;;;;6215345;23;20154;-65
2022/09/17 05:30:17;;;;;;;1.30;1.30;;;10.50;99.90;;;;;;6215578;23;20169;-64
2022/09/17 05:32:43;;;;;;;2.20;1.50;;;10.50;99.90;;;;;;6215183;23;20146;-64
2022/09/17 05:35:09;;;;;;;1.80;1.70;;;10.50;99.90;;;;;;6215353;23;20193;-64
2022/09/17 05:37:35;;;;;;;1.70;1.60;;;10.50;99.90;;;;;;6216008;23;20200;-64
2022/09/17 05:40:08;;;;;;;2.65;1.30;;;10.50;99.90;;;;;;6215928;23;20149;-63
2022/09/17 05:42:34;;;;;;;1.50;1.40;;;10.50;99.90;;;;;;6214770;23;20131;-64
2022/09/17 05:44:59;;;;;;;1.17;1.15;;;10.50;99.90;;;;;;6215279;23;20195;-64
2022/09/17 05:47:25;;;;;;;1.00;1.00;;;10.60;99.90;;;;;;6215625;23;20145;-64
2022/09/17 05:49:50;;;;;;;6.37;1.47;;;10.60;99.90;;;;;;6215477;23;20586;-64
2022/09/17 05:52:16;;;;;;;1.37;1.30;;;10.70;99.90;;;;;;6188636;23;20157;-63
2022/09/17 05:54:42;;;;;;;1.13;1.03;;;10.70;99.90;;;;;;6215419;23;20177;-63
2022/09/17 05:57:07;;;;;;;1.23;1.20;;;10.80;99.90;;;;;;6215756;23;20174;-63
2022/09/17 05:59:34;;;;;;;1.30;1.20;;;10.90;99.90;;;;;;6217659;23;20581;-62
2022/09/17 06:02:00;;;;;;;1.70;1.60;;;11.00;99.90;;;;;;6217689;23;20155;-64
2022/09/17 06:04:26;;;;;;;2.47;2.27;;;11.10;99.90;;;;;;6216806;23;20502;-63
2022/09/17 06:06:51;;;;;;;5.43;1.60;;;11.20;99.90;;;;;;6217924;23;20150;-65
2022/09/17 06:09:17;;;;;;;1.80;1.43;;;11.30;99.90;;;;;;6217307;23;20175;-64
2022/09/17 06:11:42;;;;;;;1.40;1.30;;;11.50;99.90;;;;;;6217116;23;20174;-65
2022/09/17 06:14:08;;;;;;;1.17;1.17;;;11.60;99.90;;;;;;6217150;23;20496;-64
2022/09/17 06:16:34;;;;;;;1.60;1.50;;;11.60;99.90;;;;;;6217700;23;20222;-65
2022/09/17 06:18:59;;;;;;;1.20;1.10;;;11.60;99.90;;;;;;6216723;23;20382;-64
2022/09/17 06:21:25;;;;;;;4.67;1.60;;;11.60;99.90;;;;;;6217329;23;20519;-64
2022/09/17 06:23:51;;;;;;;1.87;1.70;;;11.60;99.90;;;;;;6216300;23;20626;-63
2022/09/17 06:26:17;;;;;;;1.67;1.47;;;11.50;99.90;;;;;;6217607;23;20144;-62
2022/09/17 06:28:43;;;;;;;4.77;1.50;;;11.50;99.90;;;;;;6190764;23;20622;-65
2022/09/17 06:31:11;;;;;;;1.38;1.35;;;11.50;99.90;;;;;;6217078;23;20377;-63
2022/09/17 06:33:37;;;;;;;1.67;1.57;;;11.60;99.90;;;;;;6217073;23;20197;-63
2022/09/17 06:36:06;;;;;;;4.67;2.20;;;11.50;99.90;;;;;;6217168;23;20428;-63
2022/09/17 06:38:33;;;;;;;1.73;1.63;;;11.50;99.90;;;;;;6217146;23;20373;-62
2022/09/17 06:40:59;;;;;;;1.40;1.30;;;11.60;99.90;;;;;;6216893;23;20148;-64
2022/09/17 06:43:25;;;;;;;2.87;1.50;;;11.60;99.90;;;;;;6216331;23;20154;-62
2022/09/17 06:45:52;;;;;;;1.83;1.73;;;11.70;99.90;;;;;;6217082;23;20155;-64
2022/09/17 06:48:18;;;;;;;1.77;1.67;;;11.70;99.90;;;;;;6191074;23;20464;-64
2022/09/17 06:50:44;;;;;;;1.17;1.17;;;11.70;99.90;;;;;;6217043;23;20367;-63
2022/09/17 06:53:09;;;;;;;1.40;1.30;;;11.80;99.90;;;;;;6216913;23;20152;-63
2022/09/17 06:55:35;;;;;;;1.50;1.40;;;11.80;99.90;;;;;;6217040;23;20175;-63
2022/09/17 06:58:00;;;;;;;2.80;1.37;;;11.80;99.90;;;;;;6216909;23;20210;-63
2022/09/17 07:00:26;;;;;;;1.90;1.70;;;11.80;99.90;;;;;;6216697;23;20148;-64
2022/09/17 07:02:59;;;;;;;1.50;1.40;;;11.80;99.90;;;;;;6216786;23;20582;-62
2022/09/17 07:05:26;;;;;;;3.28;2.25;;;11.70;99.90;;;;;;6216650;23;20215;-62
2022/09/17 07:07:52;;;;;;;2.10;2.00;;;11.70;99.90;;;;;;6216788;23;20151;-63
2022/09/17 07:10:18;;;;;;;5.45;2.30;;;11.60;99.90;;;;;;6216180;23;20363;-62
2022/09/17 07:12:44;;;;;;;2.00;1.40;;;11.50;99.90;;;;;;6215900;23;20151;-64
2022/09/17 07:15:10;;;;;;;5.00;1.43;;;11.50;99.90;;;;;;6216008;23;20394;-63
2022/09/17 07:17:39;;;;;;;2.97;1.50;;;11.50;99.90;;;;;;6215746;23;20178;-63
2022/09/17 07:20:06;;;;;;;1.70;1.60;;;11.40;99.90;;;;;;6216759;23;20378;-62
2022/09/17 07:22:31;;;;;;;3.60;2.60;;;11.40;99.90;;;;;;6216335;23;20185;-61
2022/09/17 07:24:57;;;;;;;1.60;1.50;;;11.40;99.90;;;;;;6216677;23;20687;-63
2022/09/17 07:27:22;;;;;;;1.00;1.00;;;11.30;99.90;;;;;;6217185;23;20237;-62
2022/09/17 07:29:48;;;;;;;1.97;1.77;;;11.30;99.90;;;;;;6216737;23;20450;-62
2022/09/17 07:32:14;;;;;;;1.43;1.33;;;11.30;99.90;;;;;;6216299;23;20154;-62
2022/09/17 07:34:39;;;;;;;2.30;2.10;;;11.20;99.90;;;;;;6216516;23;20178;-62
2022/09/17 07:37:05;;;;;;;1.77;1.63;;;11.30;99.90;;;;;;6216770;23;20491;-63
2022/09/17 07:39:30;;;;;;;1.47;1.37;;;11.20;99.90;;;;;;6216742;23;20151;-62
2022/09/17 07:41:56;;;;;;;1.80;1.70;;;11.20;99.90;;;;;;6216725;23;20173;-63
2022/09/17 07:44:22;;;;;;;1.20;1.20;;;11.10;99.90;;;;;;6216271;23;20169;-63
2022/09/17 07:46:47;;;;;;;1.73;1.63;;;11.10;99.90;;;;;;6216958;23;20155;-63
2022/09/17 07:49:13;;;;;;;1.60;1.50;;;11.10;99.90;;;;;;6217026;23;20477;-63
2022/09/17 07:51:38;;;;;;;3.53;1.53;;;11.10;99.90;;;;;;6216963;23;20467;-63
2022/09/17 07:54:05;;;;;;;1.47;1.40;;;11.00;99.90;;;;;;6216023;23;20181;-63
2022/09/17 07:56:31;;;;;;;1.65;1.55;;;11.10;99.90;;;;;;6216760;23;20254;-64
2022/09/17 07:58:56;;;;;;;2.00;1.60;;;11.10;99.90;;;;;;6216445;23;20512;-63
2022/09/17 08:01:22;;;;;;;2.60;1.70;;;11.10;99.90;;;;;;6216498;23;20149;-64
2022/09/17 08:03:52;;;;;;;3.90;1.77;;;11.10;99.90;;;;;;6216362;23;20167;-62
2022/09/17 08:06:24;;;;;;;1.60;1.40;;;11.10;99.90;;;;;;6216031;23;20533;-62
2022/09/17 08:08:50;;;;;;;1.90;1.70;;;11.20;99.90;;;;;;6189484;23;20148;-62
2022/09/17 08:11:21;;;;;;;1.70;1.33;;;11.30;99.90;;;;;;6216498;23;20373;-61
2022/09/17 08:13:51;;;;;;;1.95;1.80;;;11.40;99.90;;;;;;6215866;23;20167;-62
2022/09/17 08:16:18;;;;;;;1.40;1.30;;;11.60;99.90;;;;;;6216460;23;20174;-63
2022/09/17 08:18:44;;;;;;;1.90;1.77;;;11.80;99.90;;;;;;6216470;23;20404;-62
2022/09/17 08:21:13;;;;;;;2.57;2.37;;;12.00;99.90;;;;;;6216213;23;20369;-63
2022/09/17 08:23:40;;;;;;;1.77;1.50;;;12.10;99.90;;;;;;6215903;23;20385;-64
2022/09/17 08:26:07;;;;;;;1.70;1.60;;;12.10;99.90;;;;;;6216366;23;20374;-63
2022/09/17 08:28:34;;;;;;;1.83;1.70;;;12.10;99.90;;;;;;6215825;23;20687;-64
2022/09/17 08:31:05;;;;;;;2.13;1.73;;;12.10;99.90;;;;;;6215801;23;20378;-63
2022/09/17 08:33:32;;;;;;;2.40;2.20;;;12.20;99.90;;;;;;6215752;23;20387;-63
2022/09/17 08:36:00;;;;;;;3.80;2.40;;;12.20;99.90;;;;;;6215815;23;20408;-64
2022/09/17 08:38:28;;;;;;;2.87;2.23;;;12.30;99.90;;;;;;6215962;23;20375;-63
2022/09/17 08:41:09;;;;;;;2.20;1.93;;;12.40;99.90;;;;;;6217093;23;20375;-62
2022/09/17 08:43:49;;;;;;;1.67;1.50;;;12.50;99.90;;;;;;6215836;23;20388;-62
2022/09/17 08:46:14;;;;;;;3.60;1.40;;;12.60;99.90;;;;;;6215863;23;20407;-63
2022/09/17 08:48:45;;;;;;;1.30;1.20;;;12.80;99.90;;;;;;6216048;23;20740;-63
2022/09/17 08:51:35;;;;;;;3.20;1.70;;;13.10;99.90;;;;;;6216142;23;20150;-62
2022/09/17 08:54:27;;;;;;;2.20;1.50;;;13.50;99.90;;;;;;6215343;23;20393;-64
2022/09/17 08:57:10;;;;;;;1.90;1.67;;;14.00;99.90;;;;;;6216110;23;20457;-64
2022/09/17 09:00:01;;;;;;;3.03;1.97;;;14.80;99.90;;;;;;6215748;23;20368;-63
2022/09/17 09:02:48;;;;;;;1.83;1.60;;;15.80;99.90;;;;;;6215748;23;20320;-63
2022/09/17 09:05:24;;;;;;;1.90;1.80;;;17.60;99.90;;;;;;6215625;23;20411;-64
2022/09/17 09:07:55;;;;;;;1.37;1.27;;;18.70;99.90;;;;;;6216111;23;20336;-63
2022/09/17 09:10:30;;;;;;;1.20;1.20;;;19.10;99.90;;;;;;6216062;23;20840;-64
2022/09/17 09:12:59;;;;;;;1.50;1.30;;;19.10;97.90;;;;;;6215785;23;20416;-63
2022/09/17 09:15:41;;;;;;;2.40;1.40;;;18.60;97.90;;;;;;6215660;23;20377;-64
2022/09/17 09:18:35;;;;;;;4.67;1.50;;;17.90;98.00;;;;;;6189231;23;20435;-63
2022/09/17 09:21:32;;;;;;;2.93;1.40;;;16.90;99.10;;;;;;6211670;23;20377;-63
2022/09/17 09:24:07;;;;;;;1.57;1.47;;;16.20;99.90;;;;;;6215590;23;20389;-62
2022/09/17 09:26:45;;;;;;;1.40;1.30;;;15.80;99.90;;;;;;6215960;23;20697;-63
2022/09/17 09:29:28;;;;;;;2.70;2.17;;;15.40;99.90;;;;;;6216188;23;20371;-62
2022/09/17 09:32:58;;;;;;;2.10;1.87;;;15.10;99.90;;;;;;6215912;23;20356;-63
2022/09/17 09:35:29;;;;;;;1.67;1.57;;;14.80;99.90;;;;;;6046986;23;20513;-62
2022/09/17 09:38:04;;;;;;;1.70;1.60;;;14.60;99.90;;;;;;6215695;23;20373;-62
2022/09/17 09:40:45;;;;;;;2.10;1.30;;;14.30;99.90;;;;;;6215702;23;20823;-63
2022/09/17 09:43:35;;;;;;;3.60;1.20;;;14.20;99.90;;;;;;6215742;23;20453;-63
2022/09/17 09:46:38;;;;;;;3.23;1.93;;;14.30;99.90;;;;;;6215902;23;20388;-64
2022/09/17 09:49:21;;;;;;;2.97;2.10;;;14.30;99.90;;;;;;6215655;23;20798;-63
2022/09/17 09:52:24;;;;;;;2.07;1.87;;;14.40;99.90;;;;;;6215586;23;20365;-63
2022/09/17 09:55:28;;;;;;;1.90;1.40;;;14.50;99.90;;;;;;6215797;23;20392;-62
2022/09/17 09:58:32;;;;;;;4.73;2.03;;;14.40;99.90;;;;;;6215783;23;20387;-62
2022/09/17 10:00:58;;;;;;;2.60;1.93;;;14.50;99.90;;;;;;6215500;23;20391;-63
2022/09/17 10:03:39;;;;;;;6.67;1.57;;;14.60;99.90;;;;;;6215293;23;20368;-63
2022/09/17 10:06:07;;;;;;;4.20;1.97;;;14.70;99.90;;;;;;6215408;23;20168;-62
2022/09/17 10:08:39;;;;;;;1.30;1.20;;;14.80;99.90;;;;;;6215610;23;20698;-63
2022/09/17 10:11:26;;;;;;;3.07;1.90;;;15.00;99.90;;;;;;6215608;23;20354;-63
2022/09/17 10:13:52;;;;;;;4.47;1.70;;;15.20;99.90;;;;;;6214942;23;20393;-63
2022/09/17 10:16:26;;;;;;;1.13;1.13;;;15.40;99.90;;;;;;6215247;23;20730;-63
2022/09/17 10:19:17;;;;;;;12.43;3.30;;;15.40;99.90;;;;;;6215630;23;20455;-62
2022/09/17 10:21:42;;;;;;;3.40;1.80;;;15.30;99.90;;;;;;6215497;23;20730;-63
2022/09/17 10:24:25;;;;;;;1.50;1.30;;;15.30;99.90;;;;;;6188229;23;20438;-62
2022/09/17 10:26:59;;;;;;;2.40;1.53;;;15.30;99.90;;;;;;6215361;23;20196;-64
2022/09/17 10:29:24;;;;;;;1.50;1.50;;;15.30;99.90;;;;;;6215210;23;20669;-63
2022/09/17 10:31:52;;;;;;;2.00;1.90;;;15.10;99.90;;;;;;6215506;23;20374;-63
2022/09/17 10:34:24;;;;;;;1.40;1.30;;;15.00;99.90;;;;;;6214561;23;20167;-64
2022/09/17 10:36:50;;;;;;;3.00;1.47;;;15.00;99.90;;;;;;6214779;23;20416;-63
2022/09/17 10:39:30;;;;;;;2.97;2.40;;;15.00;99.90;;;;;;6215209;23;20345;-63
2022/09/17 10:41:58;;;;;;;1.97;1.70;;;15.10;99.90;;;;;;6214955;23;20369;-62
2022/09/17 10:44:29;;;;;;;3.70;1.43;;;15.10;99.90;;;;;;6215272;23;20724;-63
2022/09/17 10:47:12;;;;;;;1.63;1.50;;;15.30;99.90;;;;;;6217281;23;20422;-63
2022/09/17 10:49:52;;;;;;;2.37;1.30;;;15.70;99.90;;;;;;6217180;23;20707;-62
2022/09/17 10:52:32;;;;;;;1.30;1.27;;;16.20;99.90;;;;;;6217375;23;20725;-63
2022/09/17 10:55:20;;;;;;;1.87;1.30;;;16.70;99.90;;;;;;6217162;23;20894;-62
2022/09/17 10:58:03;;;;;;;2.00;1.53;;;17.30;99.90;;;;;;6217222;23;20369;-64
2022/09/17 11:00:48;;;;;;;2.00;1.27;;;17.80;99.50;;;;;;6217151;23;20880;-63
2022/09/17 11:03:26;;;;;;;2.00;1.90;;;18.00;98.80;;;;;;6216923;23;20370;-65
2022/09/17 11:06:24;;;;;;;2.40;1.30;;;18.10;98.50;;;;;;6216799;23;20355;-61
2022/09/17 11:09:07;;;;;;;1.70;1.60;;;18.10;97.40;;;;;;6217621;23;20566;-63
2022/09/17 11:12:05;;;;;;;1.87;1.70;;;18.10;97.50;;;;;;6217157;23;20741;-62
2022/09/17 11:14:49;;;;;;;1.70;1.07;;;18.10;96.50;;;;;;6215209;23;20425;-62
2022/09/17 11:17:29;;;;;;;3.40;2.03;;;18.00;96.10;;;;;;6217064;23;20413;-63
2022/09/17 11:20:05;;;;;;;5.90;2.53;;;17.90;96.30;;;;;;6217228;23;20383;-62
2022/09/17 11:23:13;;;;;;;1.43;1.10;;;18.00;96.80;;;;;;6216593;23;20439;-63
2022/09/17 11:25:42;;;;;;;2.93;1.10;;;18.20;96.20;;;;;;6217168;23;20655;-64
2022/09/17 11:28:32;;;;;;;1.80;1.13;;;18.40;96.20;;;;;;6217086;23;20377;-63
2022/09/17 11:31:26;;;;;;;1.43;1.13;;;18.50;95.10;;;;;;6215950;23;20414;-61
2022/09/17 11:33:58;;;;;;;2.00;1.30;;;18.60;94.70;;;;;;6216279;23;20472;-62
2022/09/17 11:36:29;;;;;;;3.93;1.20;;;18.70;94.20;;;;;;6189999;23;20743;-63
2022/09/17 11:38:58;;;;;;;1.70;1.00;;;18.80;93.70;;;;;;6190100;23;20868;-63
2022/09/17 11:41:32;;;;;;;1.80;1.00;;;18.60;92.90;;;;;;6216900;23;20464;-62
2022/09/17 11:44:09;;;;;;;1.10;0.80;;;18.50;92.70;;;;;;6216195;23;20400;-63
2022/09/17 11:46:43;;;;;;;1.00;1.00;;;18.40;93.10;;;;;;6217011;23;20373;-63
2022/09/17 11:49:32;;;;;;;1.60;1.00;;;18.40;94.10;;;;;;6216748;23;20422;-63
2022/09/17 11:52:23;;;;;;;3.53;1.20;;;18.30;94.40;;;;;;6216926;23;20360;-63
2022/09/17 11:55:01;;;;;;;2.77;1.33;;;18.00;93.90;;;;;;6215288;23;20379;-63
2022/09/17 11:57:33;;;;;;;1.73;1.30;;;17.70;93.90;;;;;;6216157;23;20378;-64
2022/09/17 12:00:12;;;;;;;2.37;1.43;;;17.40;95.30;;;;;;6216629;23;20737;-62
2022/09/17 12:02:49;;;;;;;1.07;1.07;;;17.10;95.10;;;;;;6216050;23;20345;-63
2022/09/17 12:05:23;;;;;;;1.00;0.90;;;17.00;94.70;;;;;;6216264;23;20379;-63
2022/09/17 12:07:54;;;;;;;0.90;0.90;;;16.80;94.40;;;;;;6216701;23;20380;-63
2022/09/17 12:10:50;;;;;;;1.13;1.13;;;16.60;94.60;;;;;;6216693;23;20359;-64
2022/09/17 12:13:38;;;;;;;1.37;0.87;;;16.30;95.30;;;;;;6216058;23;20803;-64
2022/09/17 12:16:31;;;;;;;2.00;0.90;;;16.00;98.00;;;;;;6216613;23;20409;-62
2022/09/17 12:19:16;;;;;;;2.53;1.00;;;15.80;99.80;;;;;;6216568;23;20344;-63
2022/09/17 12:21:59;;;;;;;1.10;1.10;;;15.60;99.90;;;;;;6216329;23;20851;-62
2022/09/17 12:24:27;;;;;;;1.03;1.03;;;15.50;99.90;;;;;;6216078;23;20381;-64
2022/09/17 12:27:07;;;;;;;1.27;1.17;;;15.60;99.90;;;;;;6216379;23;20456;-62
2022/09/17 12:29:48;;;;;;;2.30;0.70;;;15.70;99.90;;;;;;6216245;23;20381;-63
2022/09/17 12:32:46;;;;;;;1.00;0.90;;;15.90;99.90;;;;;;6216663;23;20340;-63
2022/09/17 12:35:34;;;;;;;1.10;0.83;;;16.10;99.90;;;;;;6150031;23;20397;-64
2022/09/17 12:38:19;;;;;;;2.53;1.33;;;16.20;99.90;;;;;;6189491;23;20556;-63
2022/09/17 12:41:25;;;;;;;0.80;0.80;;;16.20;99.90;;;;;;6215862;23;20359;-63
2022/09/17 12:44:19;;;;;;;0.80;0.67;;;16.10;99.90;;;;;;6215912;23;20417;-63
2022/09/17 12:46:59;;;;;;;2.07;0.93;;;15.90;99.90;;;;;;6216272;23;20357;-64
2022/09/17 12:49:43;;;;;;;0.70;0.70;;;16.10;99.90;;;;;;6216129;23;20806;-63
2022/09/17 12:52:32;;;;;;;1.80;0.80;;;16.30;99.90;;;;;;6216453;23;20356;-64
2022/09/17 12:55:15;;;;;;;1.00;1.00;;;16.60;99.90;;;;;;6215834;23;20381;-63
2022/09/17 12:57:58;;;;;;;1.40;1.30;;;16.70;99.90;;;;;;6216159;23;20408;-63
2022/09/17 13:00:24;;;;;;;2.03;1.23;;;16.60;99.70;;;;;;6216056;23;20363;-63
2022/09/17 13:03:05;;;;;;;2.20;0.70;;;16.40;99.50;;;;;;6216023;23;20339;-63
2022/09/17 13:05:49;;;;;;;0.63;0.63;;;16.30;98.90;;;;;;6215915;23;20428;-63
2022/09/17 13:08:23;;;;;;;1.13;0.50;;;16.10;98.30;;;;;;6215846;23;20702;-64
2022/09/17 13:11:10;;;;;;;0.70;0.60;;;16.10;98.20;;;;;;6215867;23;20352;-63
2022/09/17 13:13:48;;;;;;;1.27;0.70;;;16.00;98.20;;;;;;6215776;23;20382;-63
2022/09/17 13:16:22;;;;;;;0.87;0.87;;;16.00;98.80;;;;;;6215739;23;20885;-63
2022/09/17 13:19:07;;;;;;;0.80;0.80;;;15.90;99.00;;;;;;6216242;23;20353;-63
2022/09/17 13:21:45;;;;;;;0.80;0.80;;;15.70;99.30;;;;;;6216180;23;20353;-64
2022/09/17 13:24:19;;;;;;;0.60;0.60;;;15.70;99.90;;;;;;6215454;23;20770;-62
2022/09/17 13:26:45;;;;;;;1.07;0.80;;;15.60;99.40;;;;;;6216137;23;20712;-62
2022/09/17 13:29:13;;;;;;;0.60;0.60;;;15.40;99.80;;;;;;6215849;23;20372;-63
2022/09/17 13:31:39;;;;;;;1.73;0.93;;;15.30;99.90;;;;;;6215540;23;20385;-62
2022/09/17 13:34:17;;;;;;;2.00;1.30;;;15.30;99.90;;;;;;6215534;23;20389;-63
2022/09/17 13:36:49;;;;;;;0.60;0.60;;;15.50;99.90;;;;;;6215902;23;20443;-63
2022/09/17 13:39:43;;;;;;;0.60;0.60;;;15.60;99.80;;;;;;6215948;23;20425;-63
2022/09/17 13:42:23;;;;;;;0.60;0.60;;;15.40;99.90;;;;;;6215493;23;20365;-62
2022/09/17 13:45:04;;;;;;;2.67;0.70;;;15.20;99.90;;;;;;6215788;23;20382;-63
2022/09/17 13:47:32;;;;;;;2.93;1.10;;;15.10;99.90;;;;;;6215710;23;20375;-63
2022/09/17 13:50:06;;;;;;;1.20;1.10;;;15.10;99.90;;;;;;6215898;23;20368;-64
2022/09/17 13:52:39;;;;;;;0.90;0.90;;;15.00;99.90;;;;;;6215430;23;20377;-64
2022/09/17 13:55:06;;;;;;;0.87;0.87;;;14.90;99.90;;;;;;6215344;23;20367;-63
2022/09/17 13:57:44;;;;;;;0.70;0.70;;;14.90;99.90;;;;;;6215649;23;20404;-65
2022/09/17 14:00:48;;;;;;;1.70;1.23;;;14.80;99.90;;;;;;6215883;23;20387;-63
2022/09/17 14:03:36;;;;;;;2.40;1.13;;;14.80;99.90;;;;;;6215071;23;20456;-64
2022/09/17 14:06:04;;;;;;;0.87;0.83;;;14.80;99.90;;;;;;6215518;23;20431;-63
2022/09/17 14:08:46;;;;;;;1.00;1.00;;;14.60;99.90;;;;;;6215804;23;20352;-65
2022/09/17 14:11:31;;;;;;;0.60;0.60;;;14.50;99.90;;;;;;6215755;23;20369;-64
2022/09/17 14:14:07;;;;;;;0.83;0.80;;;14.40;99.90;;;;;;6215416;23;20463;-63
2022/09/17 14:16:35;;;;;;;2.90;0.90;;;14.40;99.90;;;;;;6214736;23;20872;-65
2022/09/17 14:19:31;;;;;;;0.80;0.80;;;14.40;99.90;;;;;;6214984;23;20702;-62
2022/09/17 14:22:22;;;;;;;2.07;0.83;;;14.50;99.90;;;;;;6217106;23;20348;-64
2022/09/17 14:24:53;;;;;;;2.00;0.90;;;14.60;99.90;;;;;;6217098;23;20388;-63
2022/09/17 14:27:45;;;;;;;1.27;1.27;;;14.60;99.90;;;;;;6217774;23;20330;-63
2022/09/17 14:30:22;;;;;;;0.90;0.90;;;14.80;99.90;;;;;;6217511;23;20376;-62
2022/09/17 14:33:00;;;;;;;0.80;0.80;;;14.80;99.90;;;;;;6217063;23;20357;-62
2022/09/17 14:35:40;;;;;;;0.83;0.83;;;14.90;99.90;;;;;;6217563;23;20388;-62
2022/09/17 14:38:09;;;;;;;1.30;1.20;;;15.10;99.90;;;;;;6217458;23;20352;-64
2022/09/17 14:40:35;;;;;;;0.93;0.93;;;15.20;99.90;;;;;;6217591;23;20368;-63
2022/09/17 14:43:02;;;;;;;0.80;0.80;;;15.30;99.90;;;;;;6216442;23;20840;-69
2022/09/17 14:45:41;;;;;;;1.10;0.87;;;15.40;99.90;;;;;;6217724;23;20723;-66
2022/09/17 14:48:27;;;;;;;0.93;0.93;;;15.50;99.90;;;;;;6217637;23;20439;-66
2022/09/17 14:51:30;;;;;;;1.07;1.00;;;15.60;99.90;;;;;;6217179;23;20717;-66
2022/09/17 14:54:05;;;;;;;2.63;1.10;;;15.60;99.90;;;;;;6215633;23;20419;-66
2022/09/17 14:56:39;;;;;;;1.03;1.00;;;15.50;99.90;;;;;;6217186;23;20503;-63
2022/09/17 14:59:05;;;;;;;0.97;0.97;;;15.50;99.90;;;;;;6216860;23;20361;-66
2022/09/17 15:01:30;;;;;;;0.73;0.73;;;15.50;99.90;;;;;;6217094;23;20422;-64
2022/09/17 15:04:14;;;;;;;0.90;0.90;;;15.50;99.90;;;;;;6216519;23;20224;-69
2022/09/17 15:06:41;;;;;;;1.13;1.13;;;15.60;99.90;;;;;;6190254;23;20159;-64
2022/09/17 15:09:18;;;;;;;0.90;0.90;;;15.50;99.90;;;;;;6216978;23;20395;-66
2022/09/17 15:11:46;;;;;;;1.10;1.10;;;15.50;99.90;;;;;;6216787;23;20356;-68
2022/09/17 15:14:38;;;;;;;1.90;1.00;;;15.40;99.90;;;;;;6216508;23;20406;-67
2022/09/17 15:17:05;;;;;;;1.33;1.23;;;15.40;99.90;;;;;;6209997;23;20417;-68
2022/09/17 15:19:39;;;;;;;0.80;0.80;;;15.40;99.90;;;;;;6216899;23;20468;-64
2022/09/17 15:22:14;;;;;;;0.97;0.70;;;15.50;99.90;;;;;;6217284;23;20373;-66
2022/09/17 15:24:46;;;;;;;1.57;1.47;;;15.60;99.90;;;;;;6216326;23;20449;-66
2022/09/17 15:27:32;;;;;;;1.07;1.07;;;15.60;99.90;;;;;;6216771;23;20701;-67
2022/09/17 15:30:24;;;;;;;1.00;1.00;;;15.50;99.90;;;;;;6216893;23;20353;-64
2022/09/17 15:32:52;;;;;;;0.80;0.80;;;15.30;99.90;;;;;;6183462;23;20478;-67
2022/09/17 15:35:27;;;;;;;1.20;1.17;;;15.10;99.90;;;;;;6216492;23;20391;-65
2022/09/17 15:37:58;;;;;;;1.17;1.00;;;14.90;99.90;;;;;;6216638;23;20927;-66
2022/09/17 15:40:27;;;;;;;1.10;1.00;;;14.80;99.90;;;;;;6216727;23;20349;-66
2022/09/17 15:43:10;;;;;;;1.10;1.00;;;14.70;99.90;;;;;;6216351;23;20379;-65
2022/09/17 15:45:38;;;;;;;1.33;1.03;;;14.60;99.90;;;;;;6216158;23;20367;-65
2022/09/17 15:48:04;;;;;;;1.53;1.53;;;14.50;99.90;;;;;;6216627;23;20368;-65
2022/09/17 15:50:32;;;;;;;2.90;1.20;;;14.50;99.90;;;;;;6216954;23;20351;-64
2022/09/17 15:53:22;;;;;;;1.07;1.07;;;14.60;99.90;;;;;;6216487;23;20427;-65
2022/09/17 15:56:23;;;;;;;1.20;1.10;;;14.80;99.90;;;;;;6194882;23;20380;-65
2022/09/17 15:58:55;;;;;;;2.30;1.30;;;14.80;99.90;;;;;;6216954;23;20789;-66
2022/09/17 16:01:32;;;;;;;0.70;0.70;;;14.70;99.90;;;;;;6216580;23;20393;-67
2022/09/17 16:04:00;;;;;;;1.83;1.27;;;14.60;99.90;;;;;;6215941;23;20391;-65
2022/09/17 16:06:26;;;;;;;1.20;1.10;;;14.50;99.90;;;;;;6216482;23;20364;-64
2022/09/17 16:08:59;;;;;;;1.00;1.00;;;14.50;99.90;;;;;;6216851;23;20397;-64
2022/09/17 16:11:27;;;;;;;1.30;1.20;;;14.50;99.90;;;;;;6216696;23;20225;-65
2022/09/17 16:13:55;;;;;;;0.87;0.87;;;14.40;99.90;;;;;;6216008;23;20758;-64
2022/09/17 16:16:23;;;;;;;1.17;1.07;;;14.40;99.90;;;;;;6215986;23;20408;-66
2022/09/17 16:18:49;;;;;;;2.80;1.67;;;14.30;99.90;;;;;;6215790;23;20371;-68
2022/09/17 16:21:17;;;;;;;2.10;1.23;;;14.10;99.90;;;;;;6216249;23;20378;-64
2022/09/17 16:23:43;;;;;;;0.90;0.90;;;14.00;99.90;;;;;;6216099;23;20175;-65
2022/09/17 16:26:25;;;;;;;1.60;1.50;;;13.90;99.90;;;;;;6216055;23;20451;-67
2022/09/17 16:28:55;;;;;;;2.03;0.90;;;13.80;99.90;;;;;;6216302;23;20368;-68
2022/09/17 16:31:21;;;;;;;1.80;1.00;;;13.70;99.90;;;;;;6215706;23;20471;-66
2022/09/17 16:33:46;;;;;;;1.30;0.97;;;13.70;99.90;;;;;;6215607;23;20402;-65
2022/09/17 16:36:15;;;;;;;1.03;0.97;;;13.60;99.90;;;;;;6216046;23;20168;-64
2022/09/17 16:38:41;;;;;;;0.87;0.87;;;13.70;99.90;;;;;;6216022;23;20282;-61
2022/09/17 16:41:06;;;;;;;0.83;0.83;;;13.70;99.90;;;;;;6215992;23;20701;-61
2022/09/17 16:43:33;;;;;;;0.70;0.70;;;13.80;99.90;;;;;;6215145;23;20608;-61
2022/09/17 16:46:04;;;;;;;1.00;1.00;;;13.80;99.90;;;;;;6216315;23;20606;-62
2022/09/17 16:48:31;;;;;;;1.60;0.90;;;13.80;99.90;;;;;;6215862;23;20434;-65
2022/09/17 16:50:57;;;;;;;2.23;2.13;;;13.80;99.90;;;;;;6215749;23;20374;-65
2022/09/17 16:53:23;;;;;;;1.37;1.27;;;13.80;99.90;;;;;;6215477;23;20751;-65
2022/09/17 16:55:48;;;;;;;2.30;1.10;;;13.80;99.90;;;;;;6215974;23;20377;-66
2022/09/17 16:58:14;;;;;;;2.30;0.90;;;13.80;99.90;;;;;;6215850;23;20147;-66
2022/09/17 17:00:43;;;;;;;0.90;0.90;;;13.80;99.90;;;;;;6215630;23;20213;-65
2022/09/17 17:03:12;;;;;;;1.73;1.63;;;13.80;99.90;;;;;;6215225;23;20169;-68
2022/09/17 17:05:38;;;;;;;3.40;3.07;;;13.80;99.90;;;;;;6215732;23;20387;-67
2022/09/17 17:08:05;;;;;;;1.43;1.33;;;13.70;99.90;;;;;;6216112;23;20372;-68
2022/09/17 17:10:32;;;;;;;2.80;1.60;;;13.70;99.90;;;;;;6215725;23;20371;-68
2022/09/17 17:12:57;;;;;;;2.57;2.20;;;13.70;99.90;;;;;;6215588;23;20406;-66
2022/09/17 17:15:23;;;;;;;4.23;2.30;;;13.70;99.90;;;;;;6215644;23;20755;-66
2022/09/17 17:17:49;;;;;;;4.60;2.47;;;13.70;99.90;;;;;;6215346;23;20324;-67
2022/09/17 17:20:15;;;;;;;1.43;1.23;;;13.70;99.90;;;;;;6216020;23;20148;-68
2022/09/17 17:22:42;;;;;;;1.17;1.10;;;13.60;99.90;;;;;;6215474;23;20157;-68
2022/09/17 17:25:09;;;;;;;2.00;1.13;;;13.60;99.90;;;;;;6215658;23;20890;-67